createdAt,value
2023-03-23T16:01:33.818Z,22.48
2023-03-23T16:06:36.767Z,20.53
2023-03-23T16:11:38.977Z,19.83
2023-03-23T16:16:51.103Z,19.51
2023-03-23T16:21:53.488Z,19.24
2023-03-23T16:26:55.988Z,18.99
2023-03-23T16:31:58.331Z,18.92
2023-03-23T16:37:00.700Z,18.82
2023-03-23T16:42:03.232Z,18.61
2023-03-23T16:47:05.410Z,18.25
2023-03-23T16:52:07.723Z,18.17
2023-03-23T16:57:11.553Z,17.89
2023-03-23T17:02:13.840Z,17.59
2023-03-23T17:07:16.454Z,17.40
2023-03-23T17:12:18.791Z,17.59
2023-03-23T17:17:21.166Z,17.49
2023-03-23T17:22:24.262Z,17.30
2023-03-23T17:27:26.505Z,16.84
2023-03-23T17:32:28.789Z,16.69
2023-03-23T17:37:31.569Z,16.58
2023-03-23T17:42:33.938Z,16.38
2023-03-23T17:47:36.311Z,16.31
2023-03-23T17:52:38.546Z,16.39
2023-03-23T17:57:41.402Z,16.33
2023-03-23T18:02:44.295Z,16.00
2023-03-23T18:07:46.619Z,15.87
2023-03-23T18:12:51.236Z,16.04
2023-03-23T18:17:53.607Z,15.71
2023-03-23T18:22:56.253Z,15.60
2023-03-23T18:27:58.448Z,15.56
2023-03-23T18:33:07.988Z,15.27
2023-03-23T18:38:11.437Z,15.55
2023-03-23T18:43:13.728Z,15.76
2023-03-23T18:48:16.030Z,15.37
2023-03-23T18:53:19.123Z,15.24
2023-03-23T18:58:22.086Z,15.18
2023-03-23T19:03:24.763Z,15.22
2023-03-23T19:08:29.051Z,15.20
2023-03-23T19:13:37.576Z,15.18
2023-03-23T19:18:41.507Z,14.79
2023-03-23T19:23:43.844Z,14.60
2023-03-23T19:29:21.490Z,15.00
2023-03-23T19:34:08.838Z,14.90
2023-03-23T19:39:11.336Z,14.69
2023-03-23T19:44:13.925Z,14.66
2023-03-23T19:49:16.393Z,14.40
2023-03-23T19:54:19.131Z,14.20
2023-03-23T19:59:21.403Z,14.04
2023-03-23T20:04:24.989Z,14.26
2023-03-23T20:09:27.548Z,14.11
2023-03-23T20:14:30.423Z,13.87
2023-03-23T20:19:32.683Z,13.52
2023-03-23T20:24:34.858Z,13.14
2023-03-23T20:29:37.139Z,12.57
2023-03-23T20:34:39.409Z,12.26
2023-03-23T20:39:42.292Z,12.13
2023-03-23T20:44:44.784Z,11.87
2023-03-23T20:49:53.265Z,11.70
2023-03-23T20:54:56.316Z,11.57
2023-03-23T20:59:58.773Z,11.63
2023-03-23T21:05:05.081Z,11.62
2023-03-23T21:10:07.334Z,11.83
2023-03-23T21:15:10.189Z,12.36
2023-03-23T21:20:13.138Z,12.82
2023-03-23T21:25:15.506Z,12.53
2023-03-23T21:30:19.176Z,13.11
2023-03-23T21:35:21.589Z,13.38
2023-03-23T21:40:24.110Z,13.16
2023-03-23T21:45:27.046Z,13.01
2023-03-23T21:50:30.064Z,12.88
2023-03-23T21:55:33.642Z,12.79
2023-03-23T22:00:35.896Z,12.55
2023-03-23T22:05:40.317Z,12.19
2023-03-23T22:10:43.552Z,11.81
2023-03-23T22:16:05.663Z,11.59
2023-03-23T22:21:08.273Z,11.18
2023-03-23T22:26:12.173Z,10.88
2023-03-23T22:31:18.655Z,10.84
2023-03-23T22:36:22.810Z,10.91
2023-03-23T22:41:28.656Z,10.98
2023-03-23T22:46:31.553Z,10.91
2023-03-23T22:51:33.797Z,10.90
2023-03-23T22:56:37.465Z,10.84
2023-03-23T23:01:39.826Z,10.99
2023-03-23T23:06:42.104Z,10.88
2023-03-23T23:11:44.318Z,10.86
2023-03-23T23:16:47.459Z,10.81
2023-03-23T23:21:50.444Z,10.65
2023-03-23T23:26:53.317Z,10.54
2023-03-23T23:31:55.941Z,10.54
2023-03-23T23:36:59.644Z,10.67
2023-03-23T23:42:01.858Z,10.69
2023-03-23T23:47:04.867Z,10.54
2023-03-23T23:52:08.737Z,10.31
2023-03-23T23:57:11.068Z,10.14
